sensor_id;sensor_type;location;lat;lon;timestamp;P1;durP1;ratioP1;P2;durP2;ratioP2
5379;SDS011;2713;42.680;23.310;2023-05-01T00:00:23;6.37;;;5.87;;
5379;SDS011;2713;42.680;23.310;2023-05-01T00:02:52;7.27;;;6.57;;
5379;SDS011;2713;42.680;23.310;2023-05-01T00:05:18;6.67;;;6.10;;
5379;SDS011;2713;42.680;23.310;2023-05-01T00:07:46;6.57;;;6.00;;
5379;SDS011;2713;42.680;23.310;2023-05-01T00:10:14;6.40;;;5.80;;
5379;SDS011;2713;42.680;23.310;2023-05-01T00:12:41;7.47;;;6.77;;
5379;SDS011;2713;42.680;23.310;2023-05-01T00:15:08;6.50;;;6.00;;
5379;SDS011;2713;42.680;23.310;2023-05-01T00:17:35;7.03;;;6.43;;
5379;SDS011;2713;42.680;23.310;2023-05-01T00:20:02;7.13;;;6.37;;
5379;SDS011;2713;42.680;23.310;2023-05-01T00:22:30;7.57;;;6.87;;
5379;SDS011;2713;42.680;23.310;2023-05-01T00:24:57;6.60;;;5.90;;
5379;SDS011;2713;42.680;23.310;2023-05-01T00:27:25;6.70;;;6.10;;
5379;SDS011;2713;42.680;23.310;2023-05-01T00:29:52;7.27;;;6.67;;
5379;SDS011;2713;42.680;23.310;2023-05-01T00:32:18;7.60;;;7.00;;
5379;SDS011;2713;42.680;23.310;2023-05-01T00:34:45;7.03;;;6.43;;
5379;SDS011;2713;42.680;23.310;2023-05-01T00:37:12;7.40;;;6.70;;
5379;SDS011;2713;42.680;23.310;2023-05-01T00:39:39;7.07;;;6.47;;
5379;SDS011;2713;42.680;23.310;2023-05-01T00:42:06;6.90;;;6.30;;
5379;SDS011;2713;42.680;23.310;2023-05-01T00:44:34;7.30;;;6.60;;
5379;SDS011;2713;42.680;23.310;2023-05-01T00:47:01;7.13;;;6.53;;
5379;SDS011;2713;42.680;23.310;2023-05-01T00:49:28;7.60;;;6.40;;
5379;SDS011;2713;42.680;23.310;2023-05-01T00:51:55;7.83;;;7.17;;
5379;SDS011;2713;42.680;23.310;2023-05-01T00:54:22;7.70;;;7.00;;
5379;SDS011;2713;42.680;23.310;2023-05-01T00:56:51;8.73;;;6.57;;
5379;SDS011;2713;42.680;23.310;2023-05-01T00:59:19;6.97;;;6.27;;
5379;SDS011;2713;42.680;23.310;2023-05-01T01:01:47;7.80;;;7.10;;
5379;SDS011;2713;42.680;23.310;2023-05-01T01:04:16;7.10;;;6.40;;
5379;SDS011;2713;42.680;23.310;2023-05-01T01:06:46;7.63;;;6.97;;
5379;SDS011;2713;42.680;23.310;2023-05-01T01:09:25;7.33;;;6.53;;
5379;SDS011;2713;42.680;23.310;2023-05-01T01:12:05;6.80;;;6.23;;
5379;SDS011;2713;42.680;23.310;2023-05-01T01:14:38;7.13;;;6.53;;
5379;SDS011;2713;42.680;23.310;2023-05-01T01:17:16;8.03;;;7.30;;
5379;SDS011;2713;42.680;23.310;2023-05-01T01:23:00;7.23;;;6.63;;
5379;SDS011;2713;42.680;23.310;2023-05-01T01:25:51;7.10;;;6.50;;
5379;SDS011;2713;42.680;23.310;2023-05-01T01:34:26;6.87;;;6.17;;
5379;SDS011;2713;42.680;23.310;2023-05-01T01:37:00;7.70;;;7.00;;
5379;SDS011;2713;42.680;23.310;2023-05-01T01:39:35;7.73;;;7.13;;
5379;SDS011;2713;42.680;23.310;2023-05-01T01:42:09;7.07;;;6.47;;
5379;SDS011;2713;42.680;23.310;2023-05-01T01:44:41;7.60;;;7.00;;
5379;SDS011;2713;42.680;23.310;2023-05-01T01:47:14;7.57;;;6.90;;
5379;SDS011;2713;42.680;23.310;2023-05-01T01:49:47;9.20;;;8.30;;
5379;SDS011;2713;42.680;23.310;2023-05-01T01:52:17;8.63;;;7.87;;
5379;SDS011;2713;42.680;23.310;2023-05-01T01:54:47;8.37;;;7.60;;
5379;SDS011;2713;42.680;23.310;2023-05-01T01:57:18;10.67;;;8.10;;
5379;SDS011;2713;42.680;23.310;2023-05-01T01:59:47;8.73;;;7.80;;
5379;SDS011;2713;42.680;23.310;2023-05-01T02:02:17;7.93;;;7.13;;
5379;SDS011;2713;42.680;23.310;2023-05-01T02:04:46;8.57;;;7.77;;
5379;SDS011;2713;42.680;23.310;2023-05-01T02:07:15;8.83;;;7.97;;
5379;SDS011;2713;42.680;23.310;2023-05-01T02:09:45;8.33;;;7.53;;
5379;SDS011;2713;42.680;23.310;2023-05-01T02:12:13;8.97;;;8.07;;
5379;SDS011;2713;42.680;23.310;2023-05-01T02:14:42;8.40;;;7.60;;
5379;SDS011;2713;42.680;23.310;2023-05-01T02:17:10;9.10;;;7.80;;
5379;SDS011;2713;42.680;23.310;2023-05-01T02:19:40;7.30;;;6.50;;
5379;SDS011;2713;42.680;23.310;2023-05-01T02:22:09;9.03;;;8.23;;
5379;SDS011;2713;42.680;23.310;2023-05-01T02:24:37;9.73;;;7.90;;
5379;SDS011;2713;42.680;23.310;2023-05-01T02:27:10;8.93;;;8.03;;
5379;SDS011;2713;42.680;23.310;2023-05-01T02:29:40;9.00;;;8.10;;
5379;SDS011;2713;42.680;23.310;2023-05-01T02:32:08;9.27;;;8.20;;
5379;SDS011;2713;42.680;23.310;2023-05-01T02:34:35;10.60;;;8.50;;
5379;SDS011;2713;42.680;23.310;2023-05-01T02:37:02;10.00;;;9.00;;
5379;SDS011;2713;42.680;23.310;2023-05-01T02:39:33;10.93;;;9.73;;
5379;SDS011;2713;42.680;23.310;2023-05-01T02:42:00;11.53;;;10.33;;
5379;SDS011;2713;42.680;23.310;2023-05-01T02:44:29;11.40;;;10.07;;
5379;SDS011;2713;42.680;23.310;2023-05-01T02:47:03;12.50;;;10.40;;
5379;SDS011;2713;42.680;23.310;2023-05-01T02:49:32;11.67;;;10.47;;
5379;SDS011;2713;42.680;23.310;2023-05-01T02:52:00;11.67;;;9.90;;
5379;SDS011;2713;42.680;23.310;2023-05-01T02:54:29;11.93;;;10.70;;
5379;SDS011;2713;42.680;23.310;2023-05-01T02:56:58;11.60;;;10.40;;
5379;SDS011;2713;42.680;23.310;2023-05-01T02:59:26;12.80;;;11.30;;
5379;SDS011;2713;42.680;23.310;2023-05-01T03:01:53;11.90;;;10.53;;
5379;SDS011;2713;42.680;23.310;2023-05-01T03:04:20;13.47;;;11.00;;
5379;SDS011;2713;42.680;23.310;2023-05-01T03:06:47;13.20;;;10.73;;
5379;SDS011;2713;42.680;23.310;2023-05-01T03:09:13;11.57;;;10.37;;
5379;SDS011;2713;42.680;23.310;2023-05-01T03:11:40;12.70;;;9.90;;
5379;SDS011;2713;42.680;23.310;2023-05-01T03:14:08;12.37;;;10.60;;
5379;SDS011;2713;42.680;23.310;2023-05-01T03:16:36;15.23;;;10.40;;
5379;SDS011;2713;42.680;23.310;2023-05-01T03:19:03;12.13;;;10.20;;
5379;SDS011;2713;42.680;23.310;2023-05-01T03:21:30;12.40;;;10.17;;
5379;SDS011;2713;42.680;23.310;2023-05-01T03:23:58;11.67;;;10.30;;
5379;SDS011;2713;42.680;23.310;2023-05-01T03:26:25;15.50;;;11.00;;
5379;SDS011;2713;42.680;23.310;2023-05-01T03:28:52;11.07;;;9.87;;
5379;SDS011;2713;42.680;23.310;2023-05-01T03:31:21;14.23;;;9.90;;
5379;SDS011;2713;42.680;23.310;2023-05-01T03:33:48;13.00;;;10.90;;
5379;SDS011;2713;42.680;23.310;2023-05-01T03:36:15;11.80;;;10.60;;
5379;SDS011;2713;42.680;23.310;2023-05-01T03:38:44;13.87;;;11.03;;
5379;SDS011;2713;42.680;23.310;2023-05-01T03:41:34;12.23;;;10.93;;
5379;SDS011;2713;42.680;23.310;2023-05-01T03:44:16;13.60;;;10.40;;
5379;SDS011;2713;42.680;23.310;2023-05-01T03:46:45;14.30;;;10.03;;
5379;SDS011;2713;42.680;23.310;2023-05-01T03:49:18;13.37;;;9.30;;
5379;SDS011;2713;42.680;23.310;2023-05-01T03:51:46;15.40;;;9.47;;
5379;SDS011;2713;42.680;23.310;2023-05-01T03:54:13;10.53;;;9.43;;
5379;SDS011;2713;42.680;23.310;2023-05-01T03:57:00;9.83;;;8.80;;
5379;SDS011;2713;42.680;23.310;2023-05-01T03:59:28;10.83;;;8.60;;
5379;SDS011;2713;42.680;23.310;2023-05-01T04:01:56;10.90;;;8.93;;
5379;SDS011;2713;42.680;23.310;2023-05-01T04:04:24;9.97;;;8.97;;
5379;SDS011;2713;42.680;23.310;2023-05-01T04:06:55;12.03;;;9.00;;
5379;SDS011;2713;42.680;23.310;2023-05-01T04:09:22;9.87;;;8.50;;
5379;SDS011;2713;42.680;23.310;2023-05-01T04:11:49;10.57;;;9.57;;
5379;SDS011;2713;42.680;23.310;2023-05-01T04:14:15;13.10;;;9.13;;
5379;SDS011;2713;42.680;23.310;2023-05-01T04:16:43;13.23;;;10.10;;
5379;SDS011;2713;42.680;23.310;2023-05-01T04:19:11;11.33;;;9.63;;
5379;SDS011;2713;42.680;23.310;2023-05-01T04:21:43;13.90;;;9.67;;
5379;SDS011;2713;42.680;23.310;2023-05-01T04:24:11;9.90;;;8.90;;
5379;SDS011;2713;42.680;23.310;2023-05-01T04:26:38;10.90;;;9.33;;
5379;SDS011;2713;42.680;23.310;2023-05-01T04:29:07;11.40;;;8.90;;
5379;SDS011;2713;42.680;23.310;2023-05-01T04:31:34;10.73;;;9.60;;
5379;SDS011;2713;42.680;23.310;2023-05-01T04:34:01;11.10;;;9.40;;
5379;SDS011;2713;42.680;23.310;2023-05-01T04:36:29;9.80;;;8.60;;
5379;SDS011;2713;42.680;23.310;2023-05-01T04:38:57;12.10;;;8.80;;
5379;SDS011;2713;42.680;23.310;2023-05-01T04:41:24;10.20;;;9.20;;
5379;SDS011;2713;42.680;23.310;2023-05-01T04:43:51;13.37;;;10.83;;
5379;SDS011;2713;42.680;23.310;2023-05-01T04:46:18;15.47;;;10.70;;
5379;SDS011;2713;42.680;23.310;2023-05-01T04:48:45;11.70;;;10.50;;
5379;SDS011;2713;42.680;23.310;2023-05-01T04:51:11;11.80;;;10.30;;
5379;SDS011;2713;42.680;23.310;2023-05-01T04:53:40;13.40;;;11.00;;
5379;SDS011;2713;42.680;23.310;2023-05-01T04:56:16;12.30;;;10.83;;
5379;SDS011;2713;42.680;23.310;2023-05-01T04:58:44;15.77;;;11.30;;
5379;SDS011;2713;42.680;23.310;2023-05-01T05:01:15;11.73;;;10.57;;
5379;SDS011;2713;42.680;23.310;2023-05-01T05:03:43;14.73;;;10.23;;
5379;SDS011;2713;42.680;23.310;2023-05-01T05:06:12;13.60;;;10.23;;
5379;SDS011;2713;42.680;23.310;2023-05-01T05:08:40;13.80;;;10.40;;
5379;SDS011;2713;42.680;23.310;2023-05-01T05:39:21;12.90;;;10.00;;
5379;SDS011;2713;42.680;23.310;2023-05-01T05:41:49;13.20;;;10.07;;
5379;SDS011;2713;42.680;23.310;2023-05-01T05:44:18;12.50;;;10.20;;
5379;SDS011;2713;42.680;23.310;2023-05-01T05:46:45;10.87;;;9.90;;
5379;SDS011;2713;42.680;23.310;2023-05-01T05:49:17;13.60;;;10.47;;
5379;SDS011;2713;42.680;23.310;2023-05-01T05:51:44;10.80;;;9.70;;
5379;SDS011;2713;42.680;23.310;2023-05-01T05:54:11;11.20;;;9.30;;
5379;SDS011;2713;42.680;23.310;2023-05-01T05:56:39;11.83;;;10.60;;
5379;SDS011;2713;42.680;23.310;2023-05-01T05:59:07;11.70;;;10.50;;
5379;SDS011;2713;42.680;23.310;2023-05-01T06:01:34;13.03;;;9.90;;
5379;SDS011;2713;42.680;23.310;2023-05-01T06:04:01;12.20;;;11.00;;
5379;SDS011;2713;42.680;23.310;2023-05-01T06:06:30;11.80;;;10.30;;
5379;SDS011;2713;42.680;23.310;2023-05-01T06:08:58;10.63;;;9.70;;
5379;SDS011;2713;42.680;23.310;2023-05-01T06:11:25;15.03;;;10.20;;
5379;SDS011;2713;42.680;23.310;2023-05-01T06:13:53;12.07;;;11.00;;
5379;SDS011;2713;42.680;23.310;2023-05-01T06:16:20;11.63;;;10.53;;
5379;SDS011;2713;42.680;23.310;2023-05-01T06:18:47;11.27;;;10.07;;
5379;SDS011;2713;42.680;23.310;2023-05-01T06:21:15;11.87;;;10.63;;
5379;SDS011;2713;42.680;23.310;2023-05-01T06:23:42;10.40;;;9.40;;
5379;SDS011;2713;42.680;23.310;2023-05-01T06:26:21;11.97;;;10.77;;
5379;SDS011;2713;42.680;23.310;2023-05-01T06:28:48;13.67;;;11.07;;
5379;SDS011;2713;42.680;23.310;2023-05-01T06:31:16;13.57;;;10.40;;
5379;SDS011;2713;42.680;23.310;2023-05-01T06:33:48;12.30;;;11.00;;
5379;SDS011;2713;42.680;23.310;2023-05-01T06:36:23;11.43;;;10.33;;
5379;SDS011;2713;42.680;23.310;2023-05-01T06:38:50;11.70;;;10.50;;
5379;SDS011;2713;42.680;23.310;2023-05-01T06:41:17;12.10;;;11.00;;
5379;SDS011;2713;42.680;23.310;2023-05-01T06:43:44;12.90;;;10.00;;
5379;SDS011;2713;42.680;23.310;2023-05-01T06:46:11;12.53;;;11.00;;
5379;SDS011;2713;42.680;23.310;2023-05-01T06:48:39;11.67;;;10.47;;
5379;SDS011;2713;42.680;23.310;2023-05-01T06:51:06;11.53;;;10.43;;
5379;SDS011;2713;42.680;23.310;2023-05-01T06:53:33;11.60;;;10.40;;
5379;SDS011;2713;42.680;23.310;2023-05-01T06:56:01;12.20;;;10.80;;
5379;SDS011;2713;42.680;23.310;2023-05-01T06:58:27;11.60;;;10.43;;
5379;SDS011;2713;42.680;23.310;2023-05-01T07:00:54;12.47;;;11.17;;
5379;SDS011;2713;42.680;23.310;2023-05-01T07:03:21;10.97;;;9.97;;
5379;SDS011;2713;42.680;23.310;2023-05-01T07:05:49;12.77;;;11.23;;
5379;SDS011;2713;42.680;23.310;2023-05-01T07:08:16;12.03;;;10.93;;
5379;SDS011;2713;42.680;23.310;2023-05-01T07:10:43;13.73;;;10.73;;
5379;SDS011;2713;42.680;23.310;2023-05-01T07:13:10;11.07;;;10.07;;
5379;SDS011;2713;42.680;23.310;2023-05-01T07:15:36;11.03;;;9.60;;
5379;SDS011;2713;42.680;23.310;2023-05-01T07:18:03;13.87;;;10.10;;
5379;SDS011;2713;42.680;23.310;2023-05-01T07:20:31;10.93;;;9.43;;
5379;SDS011;2713;42.680;23.310;2023-05-01T07:23:00;10.47;;;9.40;;
5379;SDS011;2713;42.680;23.310;2023-05-01T07:25:26;10.50;;;9.40;;
5379;SDS011;2713;42.680;23.310;2023-05-01T07:27:53;10.43;;;9.43;;
5379;SDS011;2713;42.680;23.310;2023-05-01T07:30:20;11.23;;;10.20;;
5379;SDS011;2713;42.680;23.310;2023-05-01T07:32:48;11.87;;;10.60;;
5379;SDS011;2713;42.680;23.310;2023-05-01T07:35:15;10.97;;;9.93;;
5379;SDS011;2713;42.680;23.310;2023-05-01T07:37:41;11.83;;;9.83;;
5379;SDS011;2713;42.680;23.310;2023-05-01T07:40:10;14.67;;;10.97;;
5379;SDS011;2713;42.680;23.310;2023-05-01T07:42:37;11.47;;;10.27;;
5379;SDS011;2713;42.680;23.310;2023-05-01T07:45:04;11.53;;;10.33;;
5379;SDS011;2713;42.680;23.310;2023-05-01T07:47:32;11.07;;;9.97;;
5379;SDS011;2713;42.680;23.310;2023-05-01T07:49:59;14.00;;;9.80;;
5379;SDS011;2713;42.680;23.310;2023-05-01T07:52:26;11.73;;;10.53;;
5379;SDS011;2713;42.680;23.310;2023-05-01T07:54:52;13.20;;;10.53;;
5379;SDS011;2713;42.680;23.310;2023-05-01T07:57:21;10.43;;;9.40;;
5379;SDS011;2713;42.680;23.310;2023-05-01T07:59:52;10.03;;;9.03;;
5379;SDS011;2713;42.680;23.310;2023-05-01T08:02:19;9.73;;;8.83;;
5379;SDS011;2713;42.680;23.310;2023-05-01T08:04:46;10.40;;;9.37;;
5379;SDS011;2713;42.680;23.310;2023-05-01T08:07:13;9.57;;;8.73;;
5379;SDS011;2713;42.680;23.310;2023-05-01T08:09:40;11.40;;;10.20;;
5379;SDS011;2713;42.680;23.310;2023-05-01T08:12:06;10.93;;;9.93;;
5379;SDS011;2713;42.680;23.310;2023-05-01T08:14:35;9.50;;;8.60;;
5379;SDS011;2713;42.680;23.310;2023-05-01T08:17:01;12.20;;;9.13;;
5379;SDS011;2713;42.680;23.310;2023-05-01T08:19:28;7.23;;;6.53;;
5379;SDS011;2713;42.680;23.310;2023-05-01T08:21:55;6.77;;;6.10;;
5379;SDS011;2713;42.680;23.310;2023-05-01T08:24:22;7.03;;;6.33;;
5379;SDS011;2713;42.680;23.310;2023-05-01T08:26:49;8.67;;;7.87;;
5379;SDS011;2713;42.680;23.310;2023-05-01T08:29:16;11.40;;;7.80;;
5379;SDS011;2713;42.680;23.310;2023-05-01T08:31:44;7.90;;;7.10;;
5379;SDS011;2713;42.680;23.310;2023-05-01T08:34:11;6.87;;;6.23;;
5379;SDS011;2713;42.680;23.310;2023-05-01T08:36:37;7.80;;;6.67;;
5379;SDS011;2713;42.680;23.310;2023-05-01T08:39:04;7.17;;;6.40;;
5379;SDS011;2713;42.680;23.310;2023-05-01T08:41:31;6.43;;;5.80;;
5379;SDS011;2713;42.680;23.310;2023-05-01T08:43:59;7.17;;;6.47;;
5379;SDS011;2713;42.680;23.310;2023-05-01T08:46:29;8.30;;;6.70;;
5379;SDS011;2713;42.680;23.310;2023-05-01T08:49:04;7.93;;;6.97;;
5379;SDS011;2713;42.680;23.310;2023-05-01T08:51:32;7.10;;;6.20;;
5379;SDS011;2713;42.680;23.310;2023-05-01T08:54:01;9.07;;;8.20;;
5379;SDS011;2713;42.680;23.310;2023-05-01T08:56:33;7.70;;;7.00;;
5379;SDS011;2713;42.680;23.310;2023-05-01T08:59:02;11.63;;;6.60;;
5379;SDS011;2713;42.680;23.310;2023-05-01T09:01:30;7.67;;;6.80;;
5379;SDS011;2713;42.680;23.310;2023-05-01T09:04:00;7.33;;;6.73;;
5379;SDS011;2713;42.680;23.310;2023-05-01T09:06:30;5.87;;;5.47;;
5379;SDS011;2713;42.680;23.310;2023-05-01T09:08:57;5.80;;;5.20;;
5379;SDS011;2713;42.680;23.310;2023-05-01T09:11:25;4.93;;;4.53;;
5379;SDS011;2713;42.680;23.310;2023-05-01T09:13:52;4.57;;;4.17;;
5379;SDS011;2713;42.680;23.310;2023-05-01T09:16:19;4.40;;;4.10;;
5379;SDS011;2713;42.680;23.310;2023-05-01T09:18:47;5.03;;;4.63;;
5379;SDS011;2713;42.680;23.310;2023-05-01T09:21:14;4.23;;;3.97;;
5379;SDS011;2713;42.680;23.310;2023-05-01T09:23:43;3.63;;;3.33;;
5379;SDS011;2713;42.680;23.310;2023-05-01T09:26:09;4.57;;;4.27;;
5379;SDS011;2713;42.680;23.310;2023-05-01T09:28:43;4.27;;;3.90;;
5379;SDS011;2713;42.680;23.310;2023-05-01T09:31:20;4.60;;;4.20;;
5379;SDS011;2713;42.680;23.310;2023-05-01T09:33:51;4.23;;;3.93;;
5379;SDS011;2713;42.680;23.310;2023-05-01T09:36:19;4.63;;;4.23;;
5379;SDS011;2713;42.680;23.310;2023-05-01T09:38:47;4.47;;;4.07;;
5379;SDS011;2713;42.680;23.310;2023-05-01T09:41:14;3.37;;;3.17;;
5379;SDS011;2713;42.680;23.310;2023-05-01T09:43:41;4.33;;;4.03;;
5379;SDS011;2713;42.680;23.310;2023-05-01T09:46:14;4.60;;;4.30;;
5379;SDS011;2713;42.680;23.310;2023-05-01T09:48:50;5.83;;;5.30;;
5379;SDS011;2713;42.680;23.310;2023-05-01T09:51:20;5.00;;;4.60;;
5379;SDS011;2713;42.680;23.310;2023-05-01T09:53:49;4.60;;;4.20;;
5379;SDS011;2713;42.680;23.310;2023-05-01T09:56:17;4.60;;;4.20;;
5379;SDS011;2713;42.680;23.310;2023-05-01T09:58:44;4.87;;;4.47;;
5379;SDS011;2713;42.680;23.310;2023-05-01T10:01:11;4.50;;;4.10;;
5379;SDS011;2713;42.680;23.310;2023-05-01T10:03:38;4.77;;;4.37;;
5379;SDS011;2713;42.680;23.310;2023-05-01T10:06:05;6.40;;;4.90;;
5379;SDS011;2713;42.680;23.310;2023-05-01T10:08:44;4.50;;;3.90;;
5379;SDS011;2713;42.680;23.310;2023-05-01T10:11:13;4.10;;;3.87;;
5379;SDS011;2713;42.680;23.310;2023-05-01T10:13:40;5.83;;;4.70;;
5379;SDS011;2713;42.680;23.310;2023-05-01T10:16:26;4.60;;;4.20;;
5379;SDS011;2713;42.680;23.310;2023-05-01T10:18:54;5.27;;;4.77;;
5379;SDS011;2713;42.680;23.310;2023-05-01T10:21:22;4.40;;;4.10;;
5379;SDS011;2713;42.680;23.310;2023-05-01T10:23:49;4.43;;;3.57;;
5379;SDS011;2713;42.680;23.310;2023-05-01T10:26:18;4.17;;;3.80;;
5379;SDS011;2713;42.680;23.310;2023-05-01T10:28:47;5.30;;;4.70;;
5379;SDS011;2713;42.680;23.310;2023-05-01T10:31:14;7.17;;;4.60;;
5379;SDS011;2713;42.680;23.310;2023-05-01T10:33:41;4.93;;;4.50;;
5379;SDS011;2713;42.680;23.310;2023-05-01T10:36:10;4.90;;;4.30;;
5379;SDS011;2713;42.680;23.310;2023-05-01T10:38:42;4.10;;;3.80;;
5379;SDS011;2713;42.680;23.310;2023-05-01T10:41:12;5.00;;;4.57;;
5379;SDS011;2713;42.680;23.310;2023-05-01T10:43:41;4.83;;;4.43;;
5379;SDS011;2713;42.680;23.310;2023-05-01T10:46:26;4.07;;;3.77;;
5379;SDS011;2713;42.680;23.310;2023-05-01T10:48:55;4.43;;;4.10;;
5379;SDS011;2713;42.680;23.310;2023-05-01T10:51:22;4.90;;;4.50;;
5379;SDS011;2713;42.680;23.310;2023-05-01T10:56:47;3.60;;;3.30;;
5379;SDS011;2713;42.680;23.310;2023-05-01T10:59:16;3.90;;;3.60;;
5379;SDS011;2713;42.680;23.310;2023-05-01T11:01:43;3.73;;;3.43;;
5379;SDS011;2713;42.680;23.310;2023-05-01T11:07:13;4.00;;;3.60;;
5379;SDS011;2713;42.680;23.310;2023-05-01T11:09:42;4.00;;;3.60;;
5379;SDS011;2713;42.680;23.310;2023-05-01T11:12:10;3.40;;;3.20;;
5379;SDS011;2713;42.680;23.310;2023-05-01T11:23:17;4.37;;;3.80;;
5379;SDS011;2713;42.680;23.310;2023-05-01T11:25:48;3.53;;;3.30;;
5379;SDS011;2713;42.680;23.310;2023-05-01T11:28:18;3.80;;;3.60;;
5379;SDS011;2713;42.680;23.310;2023-05-01T11:30:49;4.03;;;3.73;;
5379;SDS011;2713;42.680;23.310;2023-05-01T11:33:23;3.50;;;3.30;;
5379;SDS011;2713;42.680;23.310;2023-05-01T11:36:00;3.97;;;3.57;;
5379;SDS011;2713;42.680;23.310;2023-05-01T11:38:28;4.40;;;4.00;;
5379;SDS011;2713;42.680;23.310;2023-05-01T11:40:56;3.40;;;3.20;;
5379;SDS011;2713;42.680;23.310;2023-05-01T11:43:25;4.30;;;3.90;;
5379;SDS011;2713;42.680;23.310;2023-05-01T11:45:53;3.90;;;3.60;;
5379;SDS011;2713;42.680;23.310;2023-05-01T11:48:27;4.20;;;3.90;;
5379;SDS011;2713;42.680;23.310;2023-05-01T11:50:54;6.53;;;5.10;;
5379;SDS011;2713;42.680;23.310;2023-05-01T11:53:21;4.10;;;3.80;;
5379;SDS011;2713;42.680;23.310;2023-05-01T11:55:48;7.30;;;3.97;;
5379;SDS011;2713;42.680;23.310;2023-05-01T11:58:15;3.53;;;3.33;;
5379;SDS011;2713;42.680;23.310;2023-05-01T12:00:42;3.73;;;3.40;;
5379;SDS011;2713;42.680;23.310;2023-05-01T12:03:11;4.20;;;3.53;;
5379;SDS011;2713;42.680;23.310;2023-05-01T12:05:39;3.30;;;3.10;;
5379;SDS011;2713;42.680;23.310;2023-05-01T12:08:08;4.07;;;3.67;;
5379;SDS011;2713;42.680;23.310;2023-05-01T12:10:37;3.80;;;3.40;;
5379;SDS011;2713;42.680;23.310;2023-05-01T12:13:05;4.33;;;3.30;;
5379;SDS011;2713;42.680;23.310;2023-05-01T12:15:33;3.70;;;3.40;;
5379;SDS011;2713;42.680;23.310;2023-05-01T12:18:02;3.50;;;3.30;;
5379;SDS011;2713;42.680;23.310;2023-05-01T12:20:34;3.60;;;3.30;;
5379;SDS011;2713;42.680;23.310;2023-05-01T12:23:02;3.50;;;3.20;;
5379;SDS011;2713;42.680;23.310;2023-05-01T12:25:30;3.73;;;3.30;;
5379;SDS011;2713;42.680;23.310;2023-05-01T12:27:58;5.03;;;3.87;;
5379;SDS011;2713;42.680;23.310;2023-05-01T12:30:26;3.13;;;2.83;;
5379;SDS011;2713;42.680;23.310;2023-05-01T12:32:54;3.13;;;2.93;;
5379;SDS011;2713;42.680;23.310;2023-05-01T12:35:21;5.10;;;2.77;;
5379;SDS011;2713;42.680;23.310;2023-05-01T12:37:55;2.77;;;2.60;;
5379;SDS011;2713;42.680;23.310;2023-05-01T12:40:24;2.73;;;2.53;;
5379;SDS011;2713;42.680;23.310;2023-05-01T12:42:54;3.10;;;2.90;;
5379;SDS011;2713;42.680;23.310;2023-05-01T12:45:22;2.90;;;2.73;;
5379;SDS011;2713;42.680;23.310;2023-05-01T12:47:50;3.60;;;3.40;;
5379;SDS011;2713;42.680;23.310;2023-05-01T12:50:17;3.23;;;3.03;;
5379;SDS011;2713;42.680;23.310;2023-05-01T12:52:45;3.23;;;3.03;;
5379;SDS011;2713;42.680;23.310;2023-05-01T12:55:14;2.43;;;2.33;;
5379;SDS011;2713;42.680;23.310;2023-05-01T12:57:51;2.37;;;2.27;;
5379;SDS011;2713;42.680;23.310;2023-05-01T13:00:19;3.60;;;3.30;;
5379;SDS011;2713;42.680;23.310;2023-05-01T13:02:47;3.07;;;2.87;;
5379;SDS011;2713;42.680;23.310;2023-05-01T13:05:14;2.97;;;2.70;;
5379;SDS011;2713;42.680;23.310;2023-05-01T13:07:46;2.53;;;2.43;;
5379;SDS011;2713;42.680;23.310;2023-05-01T13:10:16;3.83;;;3.63;;
5379;SDS011;2713;42.680;23.310;2023-05-01T13:12:55;3.53;;;3.33;;
5379;SDS011;2713;42.680;23.310;2023-05-01T13:15:22;3.37;;;2.80;;
5379;SDS011;2713;42.680;23.310;2023-05-01T13:17:50;2.87;;;2.67;;
5379;SDS011;2713;42.680;23.310;2023-05-01T13:20:23;2.53;;;2.23;;
5379;SDS011;2713;42.680;23.310;2023-05-01T13:22:52;4.40;;;2.83;;
5379;SDS011;2713;42.680;23.310;2023-05-01T13:25:20;3.90;;;3.60;;
5379;SDS011;2713;42.680;23.310;2023-05-01T13:27:48;3.20;;;3.00;;
5379;SDS011;2713;42.680;23.310;2023-05-01T13:30:16;3.20;;;2.90;;
5379;SDS011;2713;42.680;23.310;2023-05-01T13:32:46;3.10;;;2.80;;
5379;SDS011;2713;42.680;23.310;2023-05-01T13:35:20;2.77;;;2.57;;
5379;SDS011;2713;42.680;23.310;2023-05-01T13:37:49;3.60;;;3.30;;
5379;SDS011;2713;42.680;23.310;2023-05-01T13:40:16;2.67;;;2.50;;
5379;SDS011;2713;42.680;23.310;2023-05-01T13:42:45;3.30;;;3.10;;
5379;SDS011;2713;42.680;23.310;2023-05-01T13:45:17;5.87;;;3.80;;
5379;SDS011;2713;42.680;23.310;2023-05-01T13:47:48;4.93;;;4.13;;
5379;SDS011;2713;42.680;23.310;2023-05-01T13:50:16;4.10;;;3.30;;
5379;SDS011;2713;42.680;23.310;2023-05-01T13:52:43;4.10;;;3.00;;
5379;SDS011;2713;42.680;23.310;2023-05-01T13:55:11;2.93;;;2.73;;
5379;SDS011;2713;42.680;23.310;2023-05-01T13:57:38;3.57;;;3.27;;
5379;SDS011;2713;42.680;23.310;2023-05-01T14:00:13;3.80;;;2.73;;
5379;SDS011;2713;42.680;23.310;2023-05-01T14:02:42;3.80;;;3.17;;
5379;SDS011;2713;42.680;23.310;2023-05-01T14:05:10;2.80;;;2.60;;
5379;SDS011;2713;42.680;23.310;2023-05-01T14:07:39;3.37;;;3.10;;
5379;SDS011;2713;42.680;23.310;2023-05-01T14:10:11;2.70;;;2.57;;
5379;SDS011;2713;42.680;23.310;2023-05-01T14:12:38;4.87;;;2.73;;
5379;SDS011;2713;42.680;23.310;2023-05-01T14:15:08;3.00;;;2.80;;
5379;SDS011;2713;42.680;23.310;2023-05-01T14:17:37;3.13;;;2.83;;
5379;SDS011;2713;42.680;23.310;2023-05-01T14:20:04;2.90;;;2.60;;
5379;SDS011;2713;42.680;23.310;2023-05-01T14:22:35;2.90;;;2.50;;
5379;SDS011;2713;42.680;23.310;2023-05-01T14:25:14;2.70;;;2.47;;
5379;SDS011;2713;42.680;23.310;2023-05-01T14:27:47;2.33;;;2.23;;
5379;SDS011;2713;42.680;23.310;2023-05-01T14:30:17;2.70;;;2.40;;
5379;SDS011;2713;42.680;23.310;2023-05-01T14:32:50;2.87;;;2.67;;
5379;SDS011;2713;42.680;23.310;2023-05-01T14:35:17;3.13;;;2.60;;
5379;SDS011;2713;42.680;23.310;2023-05-01T14:37:46;3.00;;;2.70;;
5379;SDS011;2713;42.680;23.310;2023-05-01T14:40:13;3.40;;;3.00;;
5379;SDS011;2713;42.680;23.310;2023-05-01T14:42:40;2.70;;;2.50;;
5379;SDS011;2713;42.680;23.310;2023-05-01T14:45:08;3.10;;;2.90;;
5379;SDS011;2713;42.680;23.310;2023-05-01T14:47:39;2.30;;;2.20;;
5379;SDS011;2713;42.680;23.310;2023-05-01T14:50:10;2.80;;;2.37;;
5379;SDS011;2713;42.680;23.310;2023-05-01T14:52:39;2.83;;;2.63;;
5379;SDS011;2713;42.680;23.310;2023-05-01T14:55:07;2.43;;;2.30;;
5379;SDS011;2713;42.680;23.310;2023-05-01T14:57:34;3.10;;;2.80;;
5379;SDS011;2713;42.680;23.310;2023-05-01T15:00:01;3.60;;;2.70;;
5379;SDS011;2713;42.680;23.310;2023-05-01T15:02:28;2.73;;;2.53;;
5379;SDS011;2713;42.680;23.310;2023-05-01T15:04:56;2.50;;;2.40;;
5379;SDS011;2713;42.680;23.310;2023-05-01T15:07:23;2.63;;;2.20;;
5379;SDS011;2713;42.680;23.310;2023-05-01T15:09:50;3.10;;;2.80;;
5379;SDS011;2713;42.680;23.310;2023-05-01T15:12:17;2.27;;;2.17;;
5379;SDS011;2713;42.680;23.310;2023-05-01T15:14:44;2.50;;;2.30;;
5379;SDS011;2713;42.680;23.310;2023-05-01T15:17:11;3.00;;;2.70;;
5379;SDS011;2713;42.680;23.310;2023-05-01T15:19:38;2.50;;;2.30;;
5379;SDS011;2713;42.680;23.310;2023-05-01T15:22:06;3.10;;;2.80;;
5379;SDS011;2713;42.680;23.310;2023-05-01T15:24:32;2.63;;;2.40;;
5379;SDS011;2713;42.680;23.310;2023-05-01T15:26:59;2.40;;;2.20;;
5379;SDS011;2713;42.680;23.310;2023-05-01T15:29:27;3.30;;;3.00;;
5379;SDS011;2713;42.680;23.310;2023-05-01T15:31:54;3.87;;;2.63;;
5379;SDS011;2713;42.680;23.310;2023-05-01T15:34:21;5.50;;;5.00;;
5379;SDS011;2713;42.680;23.310;2023-05-01T15:36:48;2.50;;;2.30;;
5379;SDS011;2713;42.680;23.310;2023-05-01T15:39:16;2.43;;;2.23;;
5379;SDS011;2713;42.680;23.310;2023-05-01T15:41:44;2.60;;;2.50;;
5379;SDS011;2713;42.680;23.310;2023-05-01T15:44:11;3.03;;;2.70;;
5379;SDS011;2713;42.680;23.310;2023-05-01T15:46:38;3.10;;;2.80;;
5379;SDS011;2713;42.680;23.310;2023-05-01T15:49:06;2.93;;;2.73;;
5379;SDS011;2713;42.680;23.310;2023-05-01T15:51:33;2.50;;;2.30;;
5379;SDS011;2713;42.680;23.310;2023-05-01T15:54:00;2.93;;;2.73;;